createdAt,value
2016-11-06T00:00:00.431Z,95.21
2016-11-06T00:01:12.018Z,95.5
2016-11-06T00:02:22.769Z,95.79
2016-11-06T00:03:33.472Z,95.5
2016-11-06T00:04:44.154Z,95.75
2016-11-06T00:05:54.840Z,96.08
2016-11-06T00:07:05.543Z,96.13
2016-11-06T00:08:16.266Z,96.03
2016-11-06T00:09:27.491Z,95.94
2016-11-06T00:10:38.166Z,95.84
2016-11-06T00:11:49.247Z,95.84
2016-11-06T00:12:59.914Z,95.6
2016-11-06T00:14:11.017Z,96.47
2016-11-06T00:15:22.085Z,95.6
2016-11-06T00:16:32.849Z,95.7
2016-11-06T00:17:43.545Z,95.7
2016-11-06T00:18:54.304Z,95.89
2016-11-06T00:20:05.370Z,96.08
2016-11-06T00:21:16.209Z,95.5
2016-11-06T00:22:27.331Z,96.27
2016-11-06T00:23:38.132Z,94.93
2016-11-06T00:24:50.362Z,95.03
2016-11-06T00:26:01.819Z,95.31
2016-11-06T00:27:12.540Z,95.21
2016-11-06T00:28:23.476Z,95.41
2016-11-06T00:29:34.195Z,95.6
2016-11-06T00:30:45.251Z,95.41
2016-11-06T00:31:56.482Z,95.5
2016-11-06T00:33:07.678Z,95.21
2016-11-06T00:34:18.825Z,95.12
2016-11-06T00:35:30.345Z,95.41
2016-11-06T00:36:41.436Z,95.31
2016-11-06T00:37:52.567Z,95.5
2016-11-06T00:39:04.124Z,95.41
2016-11-06T00:40:14.768Z,95.5
2016-11-06T00:41:25.834Z,95.5
2016-11-06T00:42:37.267Z,95.6
2016-11-06T00:43:48.020Z,95.41
2016-11-06T00:44:59.467Z,95.5
2016-11-06T00:46:10.236Z,95.5
2016-11-06T00:47:20.933Z,95.5
2016-11-06T00:48:32.812Z,95.7
2016-11-06T00:49:43.534Z,95.6
2016-11-06T00:50:54.325Z,95.21
2016-11-06T00:52:05.051Z,95.41
2016-11-06T00:53:16.962Z,95.31
2016-11-06T00:54:27.663Z,95.31
2016-11-06T00:55:38.800Z,95.41
2016-11-06T00:56:50.004Z,94.93
2016-11-06T00:58:01.116Z,94.74
2016-11-06T00:59:12.202Z,94.93
2016-11-06T01:00:22.898Z,95.31
2016-11-06T01:01:33.952Z,95.31
2016-11-06T01:02:44.628Z,95.5
2016-11-06T01:03:55.729Z,95.21
2016-11-06T01:05:06.375Z,95.41
2016-11-06T01:06:17.109Z,95.21
2016-11-06T01:07:27.828Z,95.21
2016-11-06T01:08:38.518Z,95.7
2016-11-06T01:09:49.273Z,95.79
2016-11-06T01:11:00.392Z,95.7
2016-11-06T01:12:11.491Z,95.41
2016-11-06T01:13:22.213Z,95.31
2016-11-06T01:14:33.048Z,95.79
2016-11-06T01:15:44.592Z,96.08
2016-11-06T01:16:55.732Z,95.79
2016-11-06T01:18:06.467Z,96.08
2016-11-06T01:19:17.896Z,96.18
2016-11-06T01:20:28.653Z,95.31
2016-11-06T01:21:39.815Z,96.18
2016-11-06T01:22:50.611Z,96.08
2016-11-06T01:24:01.332Z,95.41
2016-11-06T01:25:12.026Z,95.98
2016-11-06T01:26:22.709Z,95.21
2016-11-06T01:27:33.733Z,95.5
2016-11-06T01:28:44.458Z,95.5
2016-11-06T01:29:55.143Z,96.18
2016-11-06T01:31:05.853Z,95.89
2016-11-06T01:32:17.298Z,95.31
2016-11-06T01:33:28.002Z,95.41
2016-11-06T01:34:39.078Z,95.12
2016-11-06T01:35:49.756Z,95.7
2016-11-06T01:37:01.274Z,95.31
2016-11-06T01:38:12.115Z,95.5
2016-11-06T01:39:22.788Z,95.5
2016-11-06T01:40:34.264Z,95.21
2016-11-06T01:41:45.018Z,95.7
2016-11-06T01:42:55.688Z,95.7
2016-11-06T01:44:06.407Z,95.89
2016-11-06T01:45:17.906Z,95.7
2016-11-06T01:46:28.996Z,95.98
2016-11-06T01:47:40.506Z,96.08
2016-11-06T01:48:51.258Z,95.89
2016-11-06T01:50:02.484Z,95.6
2016-11-06T01:51:13.512Z,95.7
2016-11-06T01:52:24.256Z,96.18
2016-11-06T01:53:34.948Z,95.79
2016-11-06T01:54:46.804Z,96.08
2016-11-06T01:55:58.246Z,95.5
2016-11-06T01:57:09.638Z,96.08
2016-11-06T01:58:21.230Z,95.98
2016-11-06T01:59:31.938Z,95.7
2016-11-06T02:00:42.679Z,95.89
2016-11-06T02:01:53.383Z,95.5
2016-11-06T02:03:04.087Z,95.79
2016-11-06T02:04:14.837Z,95.89
2016-11-06T02:05:25.903Z,95.98
2016-11-06T02:06:36.650Z,95.89
2016-11-06T02:07:47.311Z,95.7
2016-11-06T02:08:58.363Z,95.7
2016-11-06T02:10:09.443Z,96.27
2016-11-06T02:11:20.953Z,95.6
2016-11-06T02:12:31.779Z,96.37
2016-11-06T02:13:43.070Z,95.7
2016-11-06T02:14:53.815Z,95.31
2016-11-06T02:16:04.527Z,95.21
2016-11-06T02:17:15.590Z,95.5
2016-11-06T02:18:26.688Z,96.47
2016-11-06T02:19:37.366Z,96.08
2016-11-06T02:20:48.165Z,96.18
2016-11-06T02:21:58.845Z,95.5
2016-11-06T02:23:09.551Z,95.31
2016-11-06T02:24:21.044Z,95.7
2016-11-06T02:25:31.798Z,96.08
2016-11-06T02:26:42.527Z,95.89
2016-11-06T02:27:53.614Z,95.5
2016-11-06T02:29:04.284Z,95.7
2016-11-06T02:30:15.032Z,95.41
2016-11-06T02:31:26.258Z,95.5
2016-11-06T02:32:37.728Z,95.31
2016-11-06T02:33:49.243Z,95.7
2016-11-06T02:35:00.313Z,96.08
2016-11-06T02:36:11.776Z,96.08
2016-11-06T02:37:22.821Z,95.89
2016-11-06T02:38:33.478Z,95.7
2016-11-06T02:39:44.947Z,95.6
2016-11-06T02:40:55.643Z,95.7
2016-11-06T02:42:06.391Z,96.27
2016-11-06T02:43:17.117Z,96.08
2016-11-06T02:44:27.811Z,95.7
2016-11-06T02:45:39.710Z,96.27
2016-11-06T02:46:50.391Z,95.7
2016-11-06T02:48:01.485Z,96.27
2016-11-06T02:49:12.312Z,95.98
2016-11-06T02:50:23.064Z,95.89
2016-11-06T02:51:33.809Z,95.79
2016-11-06T02:52:44.503Z,95.79
2016-11-06T02:53:55.256Z,95.41
2016-11-06T02:55:06.082Z,96.08
2016-11-06T02:56:16.768Z,96.18
2016-11-06T02:57:27.511Z,96.37
2016-11-06T02:58:38.944Z,95.7
2016-11-06T02:59:49.636Z,96.08
2016-11-06T03:01:00.878Z,96.18
2016-11-06T03:02:11.567Z,96.66
2016-11-06T03:03:22.679Z,96.66
2016-11-06T03:04:33.414Z,96.47
2016-11-06T03:05:44.406Z,95.79
2016-11-06T03:06:55.103Z,95.79
2016-11-06T03:08:05.781Z,96.37
2016-11-06T03:09:16.874Z,96.66
2016-11-06T03:10:27.948Z,96.08
2016-11-06T03:11:39.457Z,96.66
2016-11-06T03:12:51.045Z,96.08
2016-11-06T03:14:01.822Z,96.47
2016-11-06T03:15:12.483Z,96.47
2016-11-06T03:16:23.176Z,96.18
2016-11-06T03:17:33.865Z,95.98
2016-11-06T03:18:45.095Z,96.37
2016-11-06T03:19:55.842Z,96.75
2016-11-06T03:21:06.557Z,96.56
2016-11-06T03:22:17.571Z,96.56
2016-11-06T03:23:28.295Z,96.37
2016-11-06T03:24:38.995Z,96.85
2016-11-06T03:25:49.657Z,96.85
2016-11-06T03:27:00.389Z,96.37
2016-11-06T03:28:11.530Z,96.56
2016-11-06T03:29:23.007Z,96.18
2016-11-06T03:30:33.688Z,96.47
2016-11-06T03:31:44.746Z,96.47
2016-11-06T03:32:55.852Z,96.56
2016-11-06T03:34:06.879Z,96.47
2016-11-06T03:35:17.561Z,96.56
2016-11-06T03:36:28.376Z,96.75
2016-11-06T03:37:39.141Z,96.66
2016-11-06T03:38:49.825Z,96.85
2016-11-06T03:40:01.418Z,96.94
2016-11-06T03:41:12.921Z,97.24
2016-11-06T03:42:24.086Z,96.37
2016-11-06T03:43:35.143Z,96.56
2016-11-06T03:44:45.819Z,96.47
2016-11-06T03:45:56.894Z,96.75
2016-11-06T03:47:07.676Z,96.66
2016-11-06T03:48:18.349Z,96.94
2016-11-06T03:49:29.083Z,97.14
2016-11-06T03:50:39.818Z,97.14
2016-11-06T03:51:50.962Z,96.75
2016-11-06T03:53:01.659Z,96.56
2016-11-06T03:54:12.694Z,96.66
2016-11-06T03:55:23.459Z,96.47
2016-11-06T03:56:34.605Z,96.66
2016-11-06T03:57:45.376Z,96.66
2016-11-06T03:58:57.241Z,95.98
2016-11-06T04:00:08.068Z,96.18
2016-11-06T04:01:19.134Z,96.47
2016-11-06T04:02:30.716Z,96.47
2016-11-06T04:03:41.413Z,96.47
2016-11-06T04:04:52.136Z,96.18
2016-11-06T04:06:03.249Z,96.47
2016-11-06T04:07:13.971Z,96.66
2016-11-06T04:08:25.447Z,96.56
2016-11-06T04:09:36.579Z,96.66
2016-11-06T04:10:47.689Z,96.47
2016-11-06T04:11:58.578Z,96.66
2016-11-06T04:13:09.324Z,96.85
2016-11-06T04:14:20.026Z,96.56
2016-11-06T04:15:31.870Z,96.66
2016-11-06T04:16:42.973Z,96.37
2016-11-06T04:17:53.732Z,96.27
2016-11-06T04:19:04.406Z,96.27
2016-11-06T04:20:15.499Z,96.56
2016-11-06T04:21:26.607Z,96.66
2016-11-06T04:22:37.291Z,96.37
2016-11-06T04:23:48.548Z,96.18
2016-11-06T04:24:59.266Z,96.47
2016-11-06T04:26:10.313Z,96.27
2016-11-06T04:27:21.048Z,96.37
2016-11-06T04:28:31.732Z,96.56
2016-11-06T04:29:42.728Z,96.27
2016-11-06T04:30:53.440Z,96.66
2016-11-06T04:32:04.689Z,96.42
2016-11-06T04:33:15.343Z,96.75
2016-11-06T04:34:26.610Z,96.27
2016-11-06T04:35:37.718Z,96.75
2016-11-06T04:36:48.399Z,96.85
2016-11-06T04:37:59.950Z,96.56
2016-11-06T04:39:10.684Z,96.75
2016-11-06T04:40:21.323Z,96.66
2016-11-06T04:41:32.014Z,96.85
2016-11-06T04:42:43.005Z,96.75
2016-11-06T04:43:54.260Z,96.47
2016-11-06T04:45:05.771Z,96.56
2016-11-06T04:46:16.434Z,96.75
2016-11-06T04:47:27.593Z,96.66
2016-11-06T04:48:38.744Z,96.66
2016-11-06T04:49:49.425Z,96.47
2016-11-06T04:51:00.874Z,96.94
2016-11-06T04:52:12.330Z,96.94
2016-11-06T04:53:23.809Z,96.94
2016-11-06T04:54:35.256Z,96.75
2016-11-06T04:55:46.369Z,96.94
2016-11-06T04:56:57.543Z,96.66
2016-11-06T04:58:08.999Z,96.94
2016-11-06T04:59:20.198Z,97.04
2016-11-06T05:00:30.887Z,96.75
2016-11-06T05:01:41.990Z,97.04
2016-11-06T05:02:52.698Z,96.85
2016-11-06T05:04:03.377Z,97.24
2016-11-06T05:05:15.376Z,97.14
2016-11-06T05:06:26.429Z,97.14
2016-11-06T05:07:37.479Z,97.04
2016-11-06T05:08:48.183Z,96.66
2016-11-06T05:09:59.291Z,96.94
2016-11-06T05:11:10.540Z,97.24
2016-11-06T05:12:21.683Z,97.61
2016-11-06T05:13:32.811Z,97.14
2016-11-06T05:14:43.524Z,97.42
2016-11-06T05:15:54.627Z,98.1
2016-11-06T05:17:05.798Z,98.29
2016-11-06T05:18:16.901Z,98.38
2016-11-06T05:19:27.977Z,98.19
2016-11-06T05:20:39.068Z,99.01
2016-11-06T05:21:50.532Z,98.72
2016-11-06T05:23:01.606Z,98.91
2016-11-06T05:24:12.345Z,98.82
2016-11-06T05:25:23.395Z,99.68
2016-11-06T05:26:34.113Z,98.82
2016-11-06T05:27:44.805Z,98.82
2016-11-06T05:28:56.350Z,98.43
2016-11-06T05:30:07.089Z,99.58
2016-11-06T05:31:17.816Z,99.1
2016-11-06T05:32:28.922Z,99.39
2016-11-06T05:33:40.088Z,99.68
2016-11-06T05:34:51.195Z,99.99
2016-11-06T05:36:01.953Z,99.99
2016-11-06T05:37:13.025Z,99.96
2016-11-06T05:38:23.804Z,99.99
2016-11-06T05:39:35.002Z,99.99
2016-11-06T05:40:46.357Z,99.99
2016-11-06T05:41:57.513Z,99.96
2016-11-06T05:43:08.627Z,99.96
2016-11-06T05:44:19.686Z,99.77
2016-11-06T05:45:31.139Z,99.99
2016-11-06T05:46:42.230Z,99.87
2016-11-06T05:47:53.296Z,99.87
2016-11-06T05:49:04.316Z,99.99
2016-11-06T05:50:15.016Z,99.96
2016-11-06T05:51:25.833Z,99.77
2016-11-06T05:52:36.633Z,99.99
2016-11-06T05:53:47.686Z,99.77
2016-11-06T05:54:58.430Z,99.49
2016-11-06T05:56:09.217Z,98.82
2016-11-06T05:57:20.661Z,99.01
2016-11-06T05:58:31.830Z,98.82
2016-11-06T05:59:42.616Z,99.2
2016-11-06T06:00:53.689Z,99.2
2016-11-06T06:02:05.180Z,99.15
2016-11-06T06:03:15.871Z,99.34
2016-11-06T06:04:28.137Z,98.82
2016-11-06T06:05:38.823Z,98.48
2016-11-06T06:06:49.874Z,99.54
2016-11-06T06:08:00.940Z,98.67
2016-11-06T06:09:11.592Z,98.86
2016-11-06T06:10:22.804Z,99.44
2016-11-06T06:11:33.543Z,99.44
2016-11-06T06:12:45.085Z,98.67
2016-11-06T06:13:56.152Z,99.54
2016-11-06T06:15:07.600Z,98.86
2016-11-06T06:16:18.781Z,99.73
2016-11-06T06:17:29.842Z,98.86
2016-11-06T06:18:40.556Z,98.62
2016-11-06T06:19:51.293Z,99.44
2016-11-06T06:21:01.985Z,99.58
2016-11-06T06:22:12.719Z,99.25
2016-11-06T06:23:23.435Z,99.2
2016-11-06T06:24:34.472Z,99.58
2016-11-06T06:25:45.581Z,99.39
2016-11-06T06:26:56.323Z,99.87
2016-11-06T06:28:07.033Z,99.99
2016-11-06T06:29:18.119Z,99.68
2016-11-06T06:30:29.271Z,99.96
2016-11-06T06:31:39.995Z,99.99
2016-11-06T06:32:51.071Z,99.99
2016-11-06T06:34:02.229Z,99.99
2016-11-06T06:35:13.335Z,99.99
2016-11-06T06:36:24.495Z,99.99
2016-11-06T06:37:35.934Z,99.99
2016-11-06T06:38:47.375Z,99.99
2016-11-06T06:39:58.122Z,99.99
2016-11-06T06:41:08.779Z,99.99
2016-11-06T06:42:19.893Z,99.99
2016-11-06T06:43:30.975Z,99.99
2016-11-06T06:44:42.079Z,99.99
2016-11-06T06:45:53.611Z,99.99
2016-11-06T06:47:04.797Z,99.99
2016-11-06T06:48:16.310Z,99.99
2016-11-06T06:49:27.794Z,99.99
2016-11-06T06:50:38.873Z,99.99
2016-11-06T06:51:49.942Z,99.99
2016-11-06T06:53:00.699Z,99.99
2016-11-06T06:54:11.411Z,99.99
2016-11-06T06:55:22.119Z,99.99
2016-11-06T06:56:32.834Z,99.99
2016-11-06T06:57:43.648Z,99.99
2016-11-06T06:58:54.338Z,99.99
2016-11-06T07:00:05.001Z,99.99
2016-11-06T07:01:15.721Z,99.99
2016-11-06T07:02:26.463Z,99.99
2016-11-06T07:03:37.135Z,99.99
2016-11-06T07:04:47.862Z,99.99
2016-11-06T07:05:58.913Z,99.99
2016-11-06T07:07:09.605Z,99.99
2016-11-06T07:08:20.408Z,99.99
2016-11-06T07:09:31.259Z,99.99
2016-11-06T07:10:42.413Z,99.99
2016-11-06T07:11:53.109Z,99.99
2016-11-06T07:13:04.300Z,99.99
2016-11-06T07:14:15.005Z,99.99
2016-11-06T07:15:25.704Z,99.99
2016-11-06T07:16:36.775Z,99.99
2016-11-06T07:17:47.560Z,99.99
2016-11-06T07:18:58.724Z,99.99
2016-11-06T07:20:09.396Z,99.99
2016-11-06T07:21:20.604Z,99.99
2016-11-06T07:22:31.675Z,99.99
2016-11-06T07:23:42.411Z,99.99
2016-11-06T07:24:53.140Z,99.99
2016-11-06T07:26:03.842Z,99.99
2016-11-06T07:27:14.548Z,99.99
2016-11-06T07:28:25.857Z,99.99
2016-11-06T07:29:36.552Z,99.99
2016-11-06T07:30:47.271Z,99.99
2016-11-06T07:31:58.378Z,99.99
2016-11-06T07:33:09.969Z,99.99
2016-11-06T07:34:21.061Z,99.99
2016-11-06T07:35:32.142Z,99.99
2016-11-06T07:36:42.867Z,99.99
2016-11-06T07:37:53.498Z,99.99
2016-11-06T07:39:04.543Z,99.99
2016-11-06T07:40:15.630Z,99.99
2016-11-06T07:41:26.378Z,99.99
2016-11-06T07:42:37.117Z,99.99
2016-11-06T07:43:48.184Z,99.96
2016-11-06T07:44:59.025Z,99.77
2016-11-06T07:46:10.160Z,99.87
2016-11-06T07:47:20.818Z,99.49
2016-11-06T07:48:31.977Z,99.99
2016-11-06T07:49:42.737Z,99.99
2016-11-06T07:50:53.499Z,99.82
2016-11-06T07:52:04.213Z,99.68
2016-11-06T07:53:15.275Z,99.99
2016-11-06T07:54:26.374Z,99.92
2016-11-06T07:55:37.417Z,99.99
2016-11-06T07:56:48.322Z,99.87
2016-11-06T07:57:59.395Z,99.99
2016-11-06T07:59:10.093Z,99.99
2016-11-06T08:00:20.823Z,99.82
2016-11-06T08:01:31.956Z,99.99
2016-11-06T08:02:42.628Z,99.99
2016-11-06T08:03:53.778Z,99.92
2016-11-06T08:05:05.267Z,99.92
2016-11-06T08:06:16.032Z,99.82
2016-11-06T08:07:27.108Z,99.82
2016-11-06T08:08:37.912Z,99.44
2016-11-06T08:09:49.014Z,99.73
2016-11-06T08:11:00.564Z,99.82
2016-11-06T08:12:11.297Z,99.34
2016-11-06T08:13:21.979Z,99.73
2016-11-06T08:14:33.071Z,99.44
2016-11-06T08:15:43.742Z,99.63
2016-11-06T08:16:54.848Z,99.63
2016-11-06T08:18:05.992Z,99.63
2016-11-06T08:19:17.082Z,99.34
2016-11-06T08:20:27.940Z,99.05
2016-11-06T08:21:39.032Z,99.34
2016-11-06T08:22:49.762Z,99.34
2016-11-06T08:24:00.480Z,99.34
2016-11-06T08:25:11.976Z,99.25
2016-11-06T08:26:22.691Z,99.25
2016-11-06T08:27:33.816Z,99.63
2016-11-06T08:28:44.509Z,99.25
2016-11-06T08:29:56.352Z,99.44
2016-11-06T08:31:07.450Z,98.86
2016-11-06T08:32:18.227Z,98.96
2016-11-06T08:33:29.253Z,99.44
2016-11-06T08:34:40.278Z,98.67
2016-11-06T08:35:51.030Z,98.86
2016-11-06T08:37:02.548Z,99.25
2016-11-06T08:38:13.207Z,98.96
2016-11-06T08:39:23.972Z,99.05
2016-11-06T08:40:34.686Z,98.86
2016-11-06T08:41:45.773Z,99.05
2016-11-06T08:42:57.938Z,98.58
2016-11-06T08:44:09.256Z,98.63
2016-11-06T08:45:20.339Z,98.48
2016-11-06T08:46:31.435Z,98.48
2016-11-06T08:47:42.546Z,98.29
2016-11-06T08:48:54.062Z,98.38
2016-11-06T08:50:04.776Z,98.24
2016-11-06T08:51:15.484Z,98.38
2016-11-06T08:52:26.169Z,98.14
2016-11-06T08:53:37.274Z,98.43
2016-11-06T08:54:47.982Z,98.05
2016-11-06T08:55:58.853Z,98.53
2016-11-06T08:57:09.913Z,97.96
2016-11-06T08:58:20.973Z,98.14
2016-11-06T08:59:31.692Z,98.24
2016-11-06T09:00:42.419Z,98.24
2016-11-06T09:01:53.161Z,98.24
2016-11-06T09:03:03.812Z,97.96
2016-11-06T09:04:14.886Z,97.66
2016-11-06T09:05:25.652Z,97.96
2016-11-06T09:06:36.730Z,97.86
2016-11-06T09:07:47.515Z,98
2016-11-06T09:08:58.189Z,98
2016-11-06T09:10:08.998Z,98.86
2016-11-06T09:11:19.658Z,98.48
2016-11-06T09:12:30.351Z,98.48
2016-11-06T09:13:41.047Z,98.58
2016-11-06T09:14:52.527Z,99.05
2016-11-06T09:16:03.212Z,98.77
2016-11-06T09:17:13.935Z,99.15
2016-11-06T09:18:24.613Z,98.96
2016-11-06T09:19:35.404Z,98.86
2016-11-06T09:20:46.535Z,98.67
2016-11-06T09:21:57.289Z,98.58
2016-11-06T09:23:08.430Z,97.86
2016-11-06T09:24:19.079Z,98.53
2016-11-06T09:25:29.798Z,97.86
2016-11-06T09:26:40.862Z,97.86
2016-11-06T09:27:51.634Z,97.47
2016-11-06T09:29:02.383Z,97.57
2016-11-06T09:30:13.520Z,97.28
2016-11-06T09:31:25.047Z,97.38
2016-11-06T09:32:35.748Z,97.09
2016-11-06T09:33:46.812Z,96.7
2016-11-06T09:34:58.351Z,96.7
2016-11-06T09:36:09.838Z,96.7
2016-11-06T09:37:20.476Z,96.42
2016-11-06T09:38:31.609Z,96.61
2016-11-06T09:39:43.057Z,96.13
2016-11-06T09:40:54.134Z,96.22
2016-11-06T09:42:04.793Z,96.75
2016-11-06T09:43:15.586Z,95.98
2016-11-06T09:44:27.132Z,96.27
2016-11-06T09:45:41.292Z,96.17
2016-11-06T09:46:52.025Z,95.79
2016-11-06T09:48:02.700Z,96.56
2016-11-06T09:49:13.434Z,95.98
2016-11-06T09:50:24.170Z,95.98
2016-11-06T09:51:35.659Z,96.27
2016-11-06T09:52:46.831Z,96.37
2016-11-06T09:53:57.635Z,96.17
2016-11-06T09:55:08.926Z,96.17
2016-11-06T09:56:20.003Z,95.98
2016-11-06T09:57:30.775Z,96.56
2016-11-06T09:58:41.469Z,95.79
2016-11-06T09:59:52.967Z,95.79
2016-11-06T10:01:04.056Z,95.03
2016-11-06T10:02:15.664Z,95.12
2016-11-06T10:03:26.950Z,95.4
2016-11-06T10:04:38.782Z,95.6
2016-11-06T10:05:49.511Z,95.21
2016-11-06T10:07:01.060Z,94.88
2016-11-06T10:08:11.802Z,95.12
2016-11-06T10:09:22.507Z,95.21
2016-11-06T10:10:33.647Z,95.17
2016-11-06T10:11:44.308Z,95.07
2016-11-06T10:12:55.033Z,95.17
2016-11-06T10:14:06.264Z,94.3
2016-11-06T10:15:16.955Z,94.49
2016-11-06T10:16:28.018Z,94.93
2016-11-06T10:17:39.114Z,95.03
2016-11-06T10:18:50.639Z,94.68
2016-11-06T10:20:01.343Z,94.93
2016-11-06T10:21:12.387Z,95.12
2016-11-06T10:22:23.454Z,94.83
2016-11-06T10:23:34.238Z,95.4
2016-11-06T10:24:44.967Z,95.21
2016-11-06T10:25:55.631Z,94.78
2016-11-06T10:27:06.338Z,95.07
2016-11-06T10:28:17.400Z,94.88
2016-11-06T10:29:28.894Z,94.11
2016-11-06T10:30:39.690Z,94.21
2016-11-06T10:31:50.809Z,93.34
2016-11-06T10:33:02.316Z,93.73
2016-11-06T10:34:12.986Z,93.24
2016-11-06T10:35:24.034Z,93.44
2016-11-06T10:36:34.666Z,93.29
2016-11-06T10:37:45.737Z,92.71
2016-11-06T10:38:57.151Z,92.71
2016-11-06T10:40:08.214Z,92.04
2016-11-06T10:41:19.276Z,92.23
2016-11-06T10:42:30.449Z,91.75
2016-11-06T10:43:41.116Z,91.31
2016-11-06T10:44:52.253Z,91.03
2016-11-06T10:46:02.901Z,89.49
2016-11-06T10:47:13.995Z,89.2
2016-11-06T10:48:25.139Z,89.01
2016-11-06T10:49:35.855Z,87.8
2016-11-06T10:50:47.336Z,86.78
2016-11-06T10:51:58.482Z,84.12
2016-11-06T10:53:09.555Z,84.32
2016-11-06T10:54:20.812Z,82.82
2016-11-06T10:55:31.922Z,80.83
2016-11-06T10:56:42.646Z,79.81
2016-11-06T10:57:53.792Z,78.11
2016-11-06T10:59:04.518Z,76.32
2016-11-06T11:00:15.286Z,72.91
2016-11-06T11:01:26.058Z,73.04
2016-11-06T11:02:37.556Z,73.97
2016-11-06T11:03:48.244Z,74.52
2016-11-06T11:04:58.905Z,74.48
2016-11-06T11:06:09.612Z,74.1
2016-11-06T11:07:20.404Z,72.04
2016-11-06T11:08:31.456Z,68.05
2016-11-06T11:09:42.915Z,67.4
2016-11-06T11:10:53.727Z,65.53
2016-11-06T11:12:04.420Z,66.4
2016-11-06T11:13:15.458Z,66.66
2016-11-06T11:14:26.229Z,66.5
2016-11-06T11:15:37.379Z,65.82
2016-11-06T11:16:48.620Z,64.65
2016-11-06T11:17:59.474Z,62.55
2016-11-06T11:19:10.147Z,61.58
2016-11-06T11:20:20.824Z,59.83
2016-11-06T11:21:31.570Z,56.95
2016-11-06T11:22:42.337Z,54.82
2016-11-06T11:23:54.034Z,55.01
2016-11-06T11:25:05.138Z,53.67
2016-11-06T11:26:15.900Z,56.18
2016-11-06T11:27:26.696Z,56.54
2016-11-06T11:28:37.493Z,58.59
2016-11-06T11:29:48.267Z,60.41
2016-11-06T11:30:59.042Z,60.51
2016-11-06T11:32:10.135Z,60.19
2016-11-06T11:33:20.925Z,60.97
2016-11-06T11:34:32.439Z,63.17
2016-11-06T11:35:43.156Z,64.37
2016-11-06T11:36:54.200Z,64.56
2016-11-06T11:38:05.308Z,64.65
2016-11-06T11:39:16.782Z,64.47
2016-11-06T11:40:27.484Z,64.17
2016-11-06T11:41:38.319Z,63.88
2016-11-06T11:42:49.051Z,65.59
2016-11-06T11:44:00.085Z,66.66
2016-11-06T11:45:10.814Z,65.79
2016-11-06T11:46:21.586Z,66.63
2016-11-06T11:47:32.304Z,68.24
2016-11-06T11:48:44.203Z,70.34
2016-11-06T11:49:55.341Z,71.08
2016-11-06T11:51:06.082Z,72.1
2016-11-06T11:52:18.132Z,72.94
2016-11-06T11:53:28.833Z,74
2016-11-06T11:54:39.576Z,73.61
2016-11-06T11:55:50.304Z,74.68
2016-11-06T11:57:01.723Z,74.48
2016-11-06T11:58:12.454Z,74.48
2016-11-06T11:59:23.624Z,72.74
2016-11-06T12:00:34.687Z,73.03
2016-11-06T12:01:45.352Z,74.38
2016-11-06T12:02:56.099Z,72.26
2016-11-06T12:04:07.147Z,72.3
2016-11-06T12:05:18.716Z,73.9
2016-11-06T12:06:29.539Z,74.96
2016-11-06T12:07:40.258Z,75.16
2016-11-06T12:08:51.008Z,74.1
2016-11-06T12:10:02.549Z,74.1
2016-11-06T12:11:13.628Z,73.61
2016-11-06T12:12:24.728Z,74
2016-11-06T12:13:35.435Z,73.22
2016-11-06T12:14:46.614Z,73.32
2016-11-06T12:15:57.730Z,73.42
2016-11-06T12:17:08.892Z,73.61
2016-11-06T12:18:19.568Z,73.42
2016-11-06T12:19:30.301Z,72.45
2016-11-06T12:20:41.021Z,72.3
2016-11-06T12:21:52.160Z,71.66
2016-11-06T12:23:02.969Z,70.4
2016-11-06T12:24:14.443Z,72.1
2016-11-06T12:25:25.531Z,71.04
2016-11-06T12:26:36.220Z,70.65
2016-11-06T12:27:46.929Z,69.72
2016-11-06T12:28:58.258Z,69.27
2016-11-06T12:30:09.730Z,70.14
2016-11-06T12:31:20.872Z,70.94
2016-11-06T12:32:31.592Z,71.81
2016-11-06T12:33:42.343Z,70.3
2016-11-06T12:34:53.140Z,70.01
2016-11-06T12:36:04.291Z,70.59
2016-11-06T12:37:15.004Z,70.3
2016-11-06T12:38:26.826Z,70.3
2016-11-06T12:39:37.462Z,68.98
2016-11-06T12:40:48.178Z,69.27
2016-11-06T12:41:59.330Z,68.69
2016-11-06T12:43:10.020Z,66.6
2016-11-06T12:44:20.753Z,62.88
2016-11-06T12:45:31.445Z,61.65
2016-11-06T12:46:43.035Z,60.28
2016-11-06T12:47:53.689Z,59.51
2016-11-06T12:49:04.417Z,59.61
2016-11-06T12:50:15.151Z,60.84
2016-11-06T12:51:26.307Z,60.06
2016-11-06T12:52:37.081Z,58.34
2016-11-06T12:53:48.819Z,58.86
2016-11-06T12:54:59.553Z,59.83
2016-11-06T12:56:10.283Z,62.55
2016-11-06T12:57:24.452Z,60.35
2016-11-06T12:58:35.255Z,60.25
2016-11-06T12:59:46.372Z,60.58
2016-11-06T13:00:57.158Z,59.77
2016-11-06T13:02:07.899Z,61.58
2016-11-06T13:03:18.582Z,63.3
2016-11-06T13:04:29.241Z,62.91
2016-11-06T13:05:39.927Z,62.33
2016-11-06T13:06:50.957Z,63.1
2016-11-06T13:08:01.711Z,62.59
2016-11-06T13:09:12.443Z,61.65
2016-11-06T13:10:23.121Z,60.71
2016-11-06T13:11:34.200Z,60.32
2016-11-06T13:12:44.936Z,56.01
2016-11-06T13:13:55.670Z,55.19
2016-11-06T13:15:06.347Z,53.69
2016-11-06T13:16:17.531Z,53.18
2016-11-06T13:17:29.518Z,51.17
2016-11-06T13:18:40.274Z,50.65
2016-11-06T13:19:50.980Z,50.87
2016-11-06T13:21:02.073Z,50.38
2016-11-06T13:22:12.946Z,49.05
2016-11-06T13:23:23.668Z,48.78
2016-11-06T13:24:34.781Z,48.8
2016-11-06T13:25:45.528Z,50.8
2016-11-06T13:26:56.610Z,51.99
2016-11-06T13:28:07.394Z,54.21
2016-11-06T13:29:18.630Z,56.2
2016-11-06T13:30:29.954Z,54.9
2016-11-06T13:31:40.734Z,53.2
2016-11-06T13:32:51.499Z,54.18
2016-11-06T13:34:02.613Z,52.72
2016-11-06T13:35:13.404Z,53.2
2016-11-06T13:36:25.320Z,53.14
2016-11-06T13:37:36.523Z,54.54
2016-11-06T13:38:47.250Z,51.58
2016-11-06T13:39:58.002Z,50.29
2016-11-06T13:41:09.431Z,47.88
2016-11-06T13:42:20.183Z,47.39
2016-11-06T13:43:30.900Z,46.66
2016-11-06T13:44:41.961Z,45.53
2016-11-06T13:45:52.773Z,41.96
2016-11-06T13:47:03.527Z,42.74
2016-11-06T13:48:14.647Z,42.76
2016-11-06T13:49:25.768Z,42.36
2016-11-06T13:50:36.968Z,42.07
2016-11-06T13:51:48.098Z,44.13
2016-11-06T13:52:58.831Z,44.48
2016-11-06T13:54:11.072Z,46.19
2016-11-06T13:55:21.825Z,47.9
2016-11-06T13:56:32.580Z,48.93
2016-11-06T13:57:43.713Z,50.36
2016-11-06T13:58:54.828Z,49.88
2016-11-06T14:00:05.578Z,49.1
2016-11-06T14:01:16.686Z,50.36
2016-11-06T14:02:27.831Z,47.17
2016-11-06T14:03:38.626Z,49.32
2016-11-06T14:04:49.763Z,47.19
2016-11-06T14:06:00.567Z,47.85
2016-11-06T14:07:11.306Z,48.02
2016-11-06T14:08:22.040Z,47.29
2016-11-06T14:09:32.787Z,44.6
2016-11-06T14:10:43.563Z,43.1
2016-11-06T14:11:54.268Z,43.1
2016-11-06T14:13:05.030Z,43.13
2016-11-06T14:14:15.846Z,43.4
2016-11-06T14:15:27.074Z,43.01
2016-11-06T14:16:38.194Z,43.18
2016-11-06T14:17:49.300Z,43.38
2016-11-06T14:19:00.026Z,44.53
2016-11-06T14:20:10.698Z,44.53
2016-11-06T14:21:21.428Z,43.55
2016-11-06T14:22:32.162Z,45.12
2016-11-06T14:23:43.705Z,45.07
2016-11-06T14:24:54.816Z,46.31
2016-11-06T14:26:05.881Z,45.46
2016-11-06T14:27:17.082Z,44.09
2016-11-06T14:28:28.566Z,45.65
2016-11-06T14:29:39.721Z,45.92
2016-11-06T14:30:50.856Z,45.46
2016-11-06T14:32:01.614Z,45.36
2016-11-06T14:33:12.802Z,45.75
2016-11-06T14:34:23.562Z,45.85
2016-11-06T14:35:34.250Z,47.27
2016-11-06T14:36:44.988Z,46.3
2016-11-06T14:37:55.675Z,45.9
2016-11-06T14:39:06.797Z,47.56
2016-11-06T14:40:17.928Z,46.1
2016-11-06T14:41:28.711Z,44.83
2016-11-06T14:42:39.801Z,46.39
2016-11-06T14:43:50.547Z,46.02
2016-11-06T14:45:01.645Z,44.48
2016-11-06T14:46:12.346Z,45.73
2016-11-06T14:47:23.129Z,43.9
2016-11-06T14:48:34.224Z,44.02
2016-11-06T14:49:44.855Z,43.43
2016-11-06T14:50:55.716Z,43.73
2016-11-06T14:52:07.190Z,46.31
2016-11-06T14:53:18.002Z,45.64
2016-11-06T14:54:28.707Z,43.9
2016-11-06T14:55:39.419Z,44.97
2016-11-06T14:56:50.308Z,45.17
2016-11-06T14:58:01.446Z,44.7
2016-11-06T14:59:12.178Z,45.68
2016-11-06T15:00:23.246Z,44.8
2016-11-06T15:01:33.934Z,46.02
2016-11-06T15:02:44.661Z,45.34
2016-11-06T15:03:55.778Z,46.69
2016-11-06T15:05:06.517Z,47.63
2016-11-06T15:06:17.617Z,45.81
2016-11-06T15:07:28.391Z,45.34
2016-11-06T15:08:39.666Z,43.82
2016-11-06T15:09:50.801Z,43.46
2016-11-06T15:11:02.337Z,44.12
2016-11-06T15:12:13.081Z,45.75
2016-11-06T15:13:23.774Z,43.12
2016-11-06T15:14:34.562Z,43.73
2016-11-06T15:15:46.183Z,43.07
2016-11-06T15:16:56.932Z,43.36
2016-11-06T15:18:07.672Z,40.66